East Blackstone, Massachusetts
Current Conditions -  °F | °C
As of 4:15 PM on Tuesday 21 Oct 2014 (Local Time) from KSFZ Reporting Station
Broken Clouds Broken Clouds  
Wind Chill: 61°   Ceiling: 3400
Heat Index: 61°   Visibility: 10mi
Dew Point: 50°   Wind: 8mph
Humidity: 68%   Direction: 80°E
Pressure: 29.89"   Gusts: NA
Location:  42.0416°N, 71.5423°W
Report Text: KSFZ 212015Z 08007KT 10SM FEW013 SCT026 BKN034 16/10 A2989 RMK AO1
Loading
Personal Weather Stations






























Interactive Weather Map
Tropical Storm Tracking
New forecast layout! Learn more

10-Day Weather Forecast

Advertisements
Track Severe Weather on mobile